Main page
METAR-TAF:

METAR-TAF

Airports :

Mandalay International Airport

Mandalay, Myanmar

latitude: 21-59N, longitude: 096-06E, elevation: 74 m

Current weather observation

The report was made 22 minutes ago, at 08:30 UTC
Wind 4 kt from the Northwest
Temperature 33°C
Humidity 44%
Pressure 1011 hPa
Visibility: 7000 m
Scattered clouds at a height of 2000 ft

METAR: VYMD 220830Z 32004KT 7000 SCT020 33/19 Q1011 NOSIG

Time: 15:22 (08:52 UTC)

Forecast

The report was made 3 hours and 52 minutes ago, at 05:00 UTC
Forecast valid from 22 at 06 UTC to 23 at 06 UTC
Wind 4 kt from the Northwest
Visibility: 7000 m
Scattered clouds at a height of 2000 ft
Temporary
from 22 at 06 UTC to 22 at 12 UTC
Wind 5 kt from the North/Northwest
Visibility: 6000 m
Scattered clouds at a height of 2000 ft

TAF: VYMD 220500Z 2206/2306 32004KT 7000 SCT020 TEMPO 2206/2212 34005KT 6000 SCT020

Weather observations and forecasts of more than 4000 airports (METAR and TAF reports).

The available stations are represented by yellow and red dots on the map.

Hover mouse over dot to see the name of the station.

Then click to see weather observations and forecasts.

To change the map : click on the green buttons with a black cross to zoom in, on the green button with a dash to zoom out, or on the green arrows for adjacent maps.


METAR-TAF: